Time;durP1;ratioP1;P1;durP2;ratioP2;P2;SDS_P1;SDS_P2;PMS_P1;PMS_P2;Temp;Humidity;BMP_temperature;BMP_pressure;BME280_temperature;BME280_humidity;BME280_pressure;Samples;Min_cycle;Max_cycle;Signal;HPM_P1;HPM_P2
2023/07/14 00:01:55;;;;;;;0.70;0.70;;;18.60;93.60;;;;;;5060626;28;20052;-77
2023/07/14 00:04:27;;;;;;;0.85;0.85;;;18.70;93.50;;;;;;5072161;28;20031;-77
2023/07/14 00:06:52;;;;;;;0.65;0.65;;;18.80;93.30;;;;;;5072196;28;20386;-77
2023/07/14 00:09:30;;;;;;;0.85;0.85;;;18.80;93.20;;;;;;5074051;28;20043;-77
2023/07/14 00:11:57;;;;;;;0.75;0.75;;;18.80;92.70;;;;;;5072236;28;20099;-77
2023/07/14 00:14:23;;;;;;;0.95;0.95;;;18.80;92.60;;;;;;5071396;28;20073;-76
2023/07/14 00:16:49;;;;;;;0.75;0.75;;;18.80;92.40;;;;;;5071800;28;20475;-76
2023/07/14 00:19:17;;;;;;;0.80;0.80;;;18.80;92.20;;;;;;5072220;28;20075;-76
2023/07/14 00:21:44;;;;;;;0.82;0.82;;;18.80;92.10;;;;;;5072266;28;20032;-76
2023/07/14 00:24:18;;;;;;;0.80;0.80;;;18.70;92.10;;;;;;5071674;28;20025;-76
2023/07/14 00:26:50;;;;;;;2.67;0.80;;;18.70;92.10;;;;;;5072136;28;20085;-76
2023/07/14 00:29:32;;;;;;;0.85;0.85;;;18.60;92.20;;;;;;5072370;28;20028;-76
2023/07/14 00:31:57;;;;;;;1.33;1.13;;;18.50;92.30;;;;;;5071490;28;20012;-76
2023/07/14 00:34:23;;;;;;;1.27;1.10;;;18.50;92.40;;;;;;5070372;28;20073;-77
2023/07/14 00:36:49;;;;;;;1.30;1.20;;;18.40;92.40;;;;;;5071551;28;20078;-76
2023/07/14 00:39:15;;;;;;;1.45;1.35;;;18.30;92.60;;;;;;5073806;28;20111;-78
2023/07/14 00:41:41;;;;;;;1.17;1.08;;;18.20;92.60;;;;;;5063314;28;20540;-77
2023/07/14 00:44:13;;;;;;;1.60;1.23;;;18.10;92.80;;;;;;5049932;28;20111;-77
2023/07/14 00:46:39;;;;;;;;;;;18.00;92.90;;;;;;5059816;28;20509;-77
2023/07/14 00:49:17;;;;;;;1.38;1.27;;;18.00;93.10;;;;;;5073371;28;19912;-76
2023/07/14 00:51:44;;;;;;;1.00;1.00;;;17.90;93.30;;;;;;5072592;28;20483;-77
2023/07/14 00:54:29;;;;;;;1.30;1.20;;;17.90;93.50;;;;;;5071788;28;20032;-77
2023/07/14 00:56:55;;;;;;;1.27;1.17;;;17.80;93.60;;;;;;5071959;28;20035;-77
2023/07/14 00:59:28;;;;;;;1.30;1.30;;;17.80;93.80;;;;;;5072097;28;20432;-77
2023/07/14 01:02:16;;;;;;;0.80;0.80;;;17.70;94.10;;;;;;5071674;28;20032;-77
2023/07/14 01:04:51;;;;;;;0.70;0.70;;;17.70;94.40;;;;;;5071325;28;20028;-77
2023/07/14 01:07:19;;;;;;;0.70;0.70;;;17.70;94.50;;;;;;5071599;28;20390;-77
2023/07/14 01:09:46;;;;;;;0.75;0.75;;;17.70;94.60;;;;;;5071769;28;20027;-77
2023/07/14 01:12:15;;;;;;;0.77;0.77;;;17.70;94.70;;;;;;5072695;28;20470;-77
2023/07/14 01:14:44;;;;;;;0.80;0.80;;;17.70;94.90;;;;;;5071187;28;20025;-77
2023/07/14 01:17:10;;;;;;;0.85;0.85;;;17.60;94.90;;;;;;5071716;28;20024;-77
2023/07/14 01:19:40;;;;;;;0.70;0.70;;;17.60;95.10;;;;;;5071973;28;20375;-77
2023/07/14 01:22:12;;;;;;;0.60;0.60;;;17.60;95.30;;;;;;5072298;28;20021;-77
2023/07/14 01:24:52;;;;;;;0.90;0.90;;;17.60;95.40;;;;;;5071050;28;20029;-77
2023/07/14 01:27:17;;;;;;;0.50;0.50;;;17.60;95.50;;;;;;5072394;28;20473;-76
2023/07/14 01:29:43;;;;;;;0.82;0.82;;;17.60;95.60;;;;;;5071410;28;20085;-77
2023/07/14 01:32:18;;;;;;;0.57;0.57;;;17.50;96.10;;;;;;5071679;28;20021;-76
2023/07/14 01:34:44;;;;;;;0.60;0.60;;;17.50;96.00;;;;;;5070787;28;20389;-77
2023/07/14 01:37:12;;;;;;;0.88;0.88;;;17.50;96.10;;;;;;5071719;28;20086;-77
2023/07/14 01:39:39;;;;;;;0.77;0.77;;;17.40;96.30;;;;;;5071009;28;20025;-76
2023/07/14 01:42:05;;;;;;;0.95;0.80;;;17.30;96.50;;;;;;5059114;28;20039;-76
2023/07/14 01:44:31;;;;;;;1.10;1.10;;;17.30;96.70;;;;;;5051431;28;20075;-76
2023/07/14 01:46:58;;;;;;;0.77;0.77;;;17.30;96.90;;;;;;5055303;28;20098;-76
2023/07/14 01:49:37;;;;;;;1.42;1.33;;;17.20;97.00;;;;;;5068575;28;20025;-77
2023/07/14 01:52:08;;;;;;;1.00;0.90;;;17.20;97.20;;;;;;5075812;28;20479;-77
2023/07/14 01:54:43;;;;;;;0.90;0.90;;;17.20;97.50;;;;;;5074585;28;20066;-77
2023/07/14 01:57:13;;;;;;;0.70;0.70;;;17.10;97.90;;;;;;5075196;28;20025;-77
2023/07/14 01:59:44;;;;;;;0.88;0.88;;;17.10;97.80;;;;;;5077565;28;20040;-77
2023/07/14 02:02:15;;;;;;;0.88;0.88;;;17.10;98.00;;;;;;5075510;28;20089;-77
2023/07/14 02:04:41;;;;;;;0.80;0.80;;;17.10;98.20;;;;;;5074497;28;20422;-77
2023/07/14 02:07:12;;;;;;;1.08;1.08;;;17.00;98.40;;;;;;5075205;28;20107;-77
2023/07/14 02:09:38;;;;;;;1.17;1.08;;;17.00;98.60;;;;;;5075866;28;20032;-76
2023/07/14 02:12:05;;;;;;;1.10;1.00;;;17.00;98.70;;;;;;5074371;28;20024;-76
2023/07/14 02:14:45;;;;;;;0.90;0.90;;;17.00;98.90;;;;;;5073997;28;20110;-77
2023/07/14 02:17:23;;;;;;;1.20;1.10;;;17.00;99.10;;;;;;5074566;28;20091;-76
2023/07/14 02:19:49;;;;;;;1.27;1.15;;;16.90;99.40;;;;;;5074406;28;20044;-77
2023/07/14 02:22:16;;;;;;;1.33;1.10;;;16.90;99.60;;;;;;5074591;28;20449;-76
2023/07/14 02:24:42;;;;;;;1.38;1.27;;;16.90;99.90;;;;;;5073631;28;20032;-77
2023/07/14 02:27:10;;;;;;;0.93;0.93;;;16.80;99.90;;;;;;5074261;28;20085;-77
2023/07/14 02:29:36;;;;;;;1.30;1.20;;;16.80;99.90;;;;;;5074443;28;20024;-77
2023/07/14 02:32:04;;;;;;;1.50;1.40;;;16.70;99.90;;;;;;5073533;28;20112;-76
2023/07/14 02:34:36;;;;;;;0.90;0.90;;;16.70;99.90;;;;;;5073792;28;20021;-76
2023/07/14 02:37:05;;;;;;;1.05;1.05;;;16.70;99.90;;;;;;5074262;28;20082;-77
2023/07/14 02:39:36;;;;;;;1.30;1.20;;;16.60;99.90;;;;;;5073969;28;20052;-76
2023/07/14 02:42:03;;;;;;;1.58;1.35;;;16.60;99.90;;;;;;5073001;28;20524;-76
2023/07/14 02:44:36;;;;;;;0.90;0.90;;;16.60;99.90;;;;;;5074858;28;20038;-76
2023/07/14 02:47:10;;;;;;;1.02;1.02;;;16.60;99.90;;;;;;5074078;28;20473;-76
2023/07/14 02:49:36;;;;;;;0.98;0.95;;;16.60;99.90;;;;;;5073773;28;20386;-76
2023/07/14 02:52:02;;;;;;;1.42;1.33;;;16.60;99.90;;;;;;5073286;28;20024;-76
2023/07/14 02:54:28;;;;;;;1.30;1.20;;;16.60;99.90;;;;;;5071454;28;20048;-76
2023/07/14 02:56:54;;;;;;;1.40;1.30;;;16.50;99.90;;;;;;5072618;28;20029;-77
2023/07/14 02:59:21;;;;;;;0.82;0.82;;;16.50;99.90;;;;;;5071694;28;20043;-77
2023/07/14 03:01:47;;;;;;;0.98;0.98;;;16.40;99.90;;;;;;5073373;28;20039;-77
2023/07/14 03:04:13;;;;;;;0.80;0.80;;;16.40;99.90;;;;;;5072863;28;20040;-77
2023/07/14 03:06:39;;;;;;;1.23;1.10;;;16.40;99.90;;;;;;5066898;28;20025;-77
2023/07/14 03:09:04;;;;;;;1.02;1.00;;;16.30;99.90;;;;;;5069998;28;20154;-76
2023/07/14 03:11:30;;;;;;;1.10;1.10;;;16.40;99.90;;;;;;5072680;28;20539;-76
2023/07/14 03:13:56;;;;;;;0.63;0.63;;;16.40;99.90;;;;;;5072426;28;20028;-76
2023/07/14 03:16:21;;;;;;;1.10;1.10;;;16.40;99.90;;;;;;5067907;28;20020;-75
2023/07/14 03:18:48;;;;;;;1.10;1.00;;;16.30;99.90;;;;;;5063190;28;20029;-77
2023/07/14 03:21:14;;;;;;;1.00;1.00;;;16.30;99.90;;;;;;5071503;28;20029;-76
2023/07/14 03:23:39;;;;;;;0.90;0.90;;;16.30;99.90;;;;;;5059871;28;20040;-76
2023/07/14 03:26:10;;;;;;;1.17;1.10;;;16.20;99.90;;;;;;5052125;28;20029;-75
2023/07/14 03:28:36;;;;;;;1.10;1.10;;;16.20;99.90;;;;;;5057741;28;20024;-75
2023/07/14 03:31:01;;;;;;;0.90;0.90;;;16.10;99.90;;;;;;5072400;28;20046;-75
2023/07/14 03:33:28;;;;;;;1.10;1.10;;;16.20;99.90;;;;;;5072580;28;20021;-76
2023/07/14 03:35:54;;;;;;;0.73;0.73;;;16.20;99.90;;;;;;5071798;28;20428;-76
2023/07/14 03:38:19;;;;;;;0.90;0.90;;;16.10;99.90;;;;;;5072708;28;20029;-76
2023/07/14 03:40:45;;;;;;;1.13;1.00;;;16.10;99.90;;;;;;5071707;28;20020;-76
2023/07/14 03:43:11;;;;;;;0.95;0.93;;;16.10;99.90;;;;;;5052521;28;20037;-75
2023/07/14 03:45:36;;;;;;;0.90;0.90;;;16.20;99.90;;;;;;5052171;28;20108;-76
2023/07/14 03:48:05;;;;;;;0.90;0.90;;;16.20;99.90;;;;;;5052672;28;20018;-75
2023/07/14 03:50:33;;;;;;;1.20;1.20;;;16.20;99.90;;;;;;5067899;28;20092;-75
2023/07/14 03:52:59;;;;;;;0.90;0.90;;;16.20;99.90;;;;;;5072311;28;20056;-75
2023/07/14 03:55:24;;;;;;;1.10;1.10;;;16.20;99.90;;;;;;5071985;28;20036;-75
2023/07/14 03:57:50;;;;;;;0.70;0.65;;;16.30;99.90;;;;;;5072764;28;20032;-75
2023/07/14 04:00:17;;;;;;;0.77;0.77;;;16.30;99.90;;;;;;5072646;28;20545;-75
2023/07/14 04:02:44;;;;;;;0.75;0.70;;;16.40;99.90;;;;;;5073962;28;20389;-75
2023/07/14 04:05:11;;;;;;;0.68;0.68;;;16.40;99.90;;;;;;5072350;28;20523;-75
2023/07/14 04:07:38;;;;;;;0.70;0.70;;;16.40;99.90;;;;;;5063432;28;20024;-76
2023/07/14 04:10:05;;;;;;;0.63;0.63;;;16.40;99.90;;;;;;5070285;28;20032;-75
2023/07/14 04:12:32;;;;;;;2.45;0.90;;;16.40;99.90;;;;;;5067604;28;20335;-74
2023/07/14 04:14:58;;;;;;;0.88;0.88;;;16.50;99.90;;;;;;5051751;28;20025;-75
2023/07/14 04:17:23;;;;;;;0.98;0.98;;;16.50;99.90;;;;;;5052064;28;20020;-75
2023/07/14 04:19:50;;;;;;;0.85;0.85;;;16.60;99.90;;;;;;5054323;28;20529;-74
2023/07/14 04:22:17;;;;;;;0.90;0.90;;;16.60;99.90;;;;;;5072004;28;20442;-74
2023/07/14 04:24:42;;;;;;;0.98;0.98;;;16.60;99.90;;;;;;5071658;28;20091;-75
2023/07/14 04:27:08;;;;;;;0.73;0.73;;;16.70;99.90;;;;;;5071901;28;20099;-75
2023/07/14 04:29:34;;;;;;;0.73;0.73;;;16.70;99.90;;;;;;5072055;28;20115;-75
2023/07/14 04:32:00;;;;;;;0.80;0.80;;;16.80;99.90;;;;;;5072669;28;20025;-74
2023/07/14 04:34:29;;;;;;;0.68;0.68;;;16.80;99.90;;;;;;5073344;28;20474;-76
2023/07/14 04:36:55;;;;;;;0.70;0.70;;;16.80;99.90;;;;;;5072506;28;20024;-75
2023/07/14 04:39:25;;;;;;;0.50;0.50;;;16.90;99.90;;;;;;5071988;28;20024;-77
2023/07/14 04:41:51;;;;;;;0.60;0.60;;;17.00;99.90;;;;;;5071961;28;20039;-76
2023/07/14 04:44:16;;;;;;;0.60;0.60;;;17.00;99.90;;;;;;5072077;28;20036;-76
2023/07/14 04:46:43;;;;;;;0.70;0.70;;;17.10;99.90;;;;;;5072535;28;20363;-74
2023/07/14 04:49:10;;;;;;;0.52;0.52;;;17.20;99.90;;;;;;5071669;28;20040;-73
2023/07/14 04:51:36;;;;;;;0.70;0.70;;;17.20;99.90;;;;;;5071570;28;20071;-75
2023/07/14 04:54:03;;;;;;;0.50;0.50;;;17.30;99.90;;;;;;5071105;28;20020;-74
2023/07/14 04:56:30;;;;;;;0.70;0.70;;;17.40;99.90;;;;;;5071582;28;20060;-74
2023/07/14 04:58:56;;;;;;;0.60;0.60;;;17.50;99.90;;;;;;5071287;28;20107;-74
2023/07/14 05:01:22;;;;;;;0.77;0.77;;;17.50;99.60;;;;;;5070015;28;20369;-76
2023/07/14 05:03:47;;;;;;;0.85;0.85;;;17.60;99.40;;;;;;5072380;28;20028;-76
2023/07/14 05:06:14;;;;;;;0.88;0.88;;;17.70;98.80;;;;;;5075274;28;20024;-77
2023/07/14 05:08:39;;;;;;;0.70;0.70;;;17.70;98.60;;;;;;5077301;28;20047;-77
2023/07/14 05:11:05;;;;;;;0.60;0.60;;;17.90;98.40;;;;;;5074137;28;20175;-77
2023/07/14 05:13:32;;;;;;;0.60;0.60;;;18.10;98.00;;;;;;5073355;28;20025;-77
2023/07/14 05:15:57;;;;;;;0.70;0.70;;;18.50;97.70;;;;;;5080590;28;20080;-76
2023/07/14 05:18:24;;;;;;;0.65;0.65;;;20.00;96.60;;;;;;5075469;28;20063;-77
2023/07/14 05:20:50;;;;;;;0.70;0.70;;;22.00;92.40;;;;;;5077037;28;20095;-77
2023/07/14 05:23:16;;;;;;;0.68;0.68;;;24.00;85.30;;;;;;5082455;28;20051;-77
2023/07/14 05:25:42;;;;;;;0.60;0.60;;;25.40;76.40;;;;;;5086298;28;20054;-76
2023/07/14 05:28:09;;;;;;;0.60;0.60;;;26.00;71.20;;;;;;5085151;28;20055;-75
2023/07/14 05:30:35;;;;;;;0.40;0.40;;;26.70;67.60;;;;;;5084264;28;20564;-77
2023/07/14 05:33:01;;;;;;;0.43;0.43;;;27.30;63.80;;;;;;5083452;28;20322;-77
2023/07/14 05:35:27;;;;;;;0.40;0.40;;;27.90;62.10;;;;;;5078024;28;20378;-77
2023/07/14 05:37:53;;;;;;;0.40;0.40;;;28.70;59.50;;;;;;5072975;28;20024;-76
2023/07/14 05:40:20;;;;;;;0.50;0.50;;;28.80;57.60;;;;;;5075466;28;20021;-76
2023/07/14 05:42:46;;;;;;;0.50;0.50;;;29.20;56.50;;;;;;5086403;28;20032;-76
2023/07/14 05:45:12;;;;;;;0.60;0.60;;;29.70;55.80;;;;;;5082626;28;20020;-77
2023/07/14 05:47:41;;;;;;;0.47;0.47;;;30.30;54.50;;;;;;5091863;28;20028;-77
2023/07/14 05:50:07;;;;;;;0.50;0.50;;;30.80;53.00;;;;;;5083331;28;20040;-77
2023/07/14 05:52:33;;;;;;;0.50;0.50;;;31.10;51.70;;;;;;5088237;28;20031;-76
2023/07/14 05:54:58;;;;;;;0.50;0.50;;;31.10;51.10;;;;;;5084761;28;20028;-77
2023/07/14 05:57:24;;;;;;;0.40;0.40;;;31.20;50.60;;;;;;5076844;28;20035;-77
2023/07/14 05:59:51;;;;;;;0.50;0.50;;;31.60;50.50;;;;;;5080143;28;20059;-76
2023/07/14 06:02:18;;;;;;;0.60;0.60;;;32.20;49.00;;;;;;5083993;28;20046;-76
2023/07/14 06:04:45;;;;;;;0.60;0.60;;;32.30;48.90;;;;;;5087301;28;20027;-77
2023/07/14 06:07:11;;;;;;;0.50;0.50;;;32.30;49.10;;;;;;5082797;28;20021;-75
2023/07/14 06:09:38;;;;;;;0.50;0.50;;;32.50;48.20;;;;;;5086832;28;20028;-76
2023/07/14 06:12:06;;;;;;;0.50;0.50;;;32.80;47.90;;;;;;5084708;28;20078;-77
2023/07/14 06:14:36;;;;;;;0.60;0.60;;;32.90;47.20;;;;;;5082484;28;20031;-76
2023/07/14 06:17:03;;;;;;;0.50;0.50;;;33.10;47.30;;;;;;5081030;28;20020;-77
2023/07/14 06:19:29;;;;;;;0.80;0.80;;;33.00;46.30;;;;;;5076825;28;20024;-76
2023/07/14 06:21:55;;;;;;;0.50;0.50;;;32.50;46.50;;;;;;5079123;28;20052;-77
2023/07/14 06:24:22;;;;;;;0.60;0.52;;;32.50;46.80;;;;;;5094169;28;20108;-75
2023/07/14 06:26:48;;;;;;;0.90;0.90;;;32.40;46.50;;;;;;5096052;28;20021;-78
2023/07/14 06:29:14;;;;;;;0.68;0.68;;;32.50;46.70;;;;;;5089758;28;20458;-77
2023/07/14 06:31:40;;;;;;;0.65;0.65;;;;;;;;;;5080460;28;20056;-76
2023/07/14 06:34:07;;;;;;;0.73;0.73;;;;;;;;;;5077336;28;20044;-76
2023/07/14 06:36:33;;;;;;;0.73;0.73;;;;;;;;;;5079796;28;20020;-75
2023/07/14 06:38:59;;;;;;;0.60;0.60;;;;;;;;;;5078550;28;20070;-76
2023/07/14 06:41:25;;;;;;;0.70;0.70;;;;;;;;;;5069547;28;20497;-77
2023/07/14 06:43:52;;;;;;;0.55;0.55;;;;;;;;;;5057259;28;20029;-77
2023/07/14 06:46:18;;;;;;;0.60;0.60;;;;;;;;;;5058388;28;20021;-76
2023/07/14 06:48:45;;;;;;;1.33;1.23;;;;;;;;;;5068057;28;20032;-75
2023/07/14 06:51:13;;;;;;;1.55;1.45;;;34.50;43.10;;;;;;5062083;28;20429;-77
2023/07/14 06:53:40;;;;;;;1.17;1.10;;;34.20;43.90;;;;;;5074079;28;20107;-77
2023/07/14 06:56:07;;;;;;;1.67;1.58;;;34.20;44.40;;;;;;5073321;28;20028;-75
2023/07/14 06:58:33;;;;;;;1.45;1.40;;;33.80;43.40;;;;;;5064051;28;20012;-76
2023/07/14 07:00:58;;;;;;;1.02;0.98;;;32.90;44.90;;;;;;5071014;28;20023;-75
2023/07/14 07:03:25;;;;;;;1.10;1.10;;;32.50;45.50;;;;;;5072977;28;20477;-76
2023/07/14 07:05:51;;;;;;;1.20;1.20;;;32.40;46.20;;;;;;5073819;28;20024;-75
2023/07/14 07:08:18;;;;;;;1.00;1.00;;;32.40;45.90;;;;;;5072797;28;20510;-75
2023/07/14 07:10:44;;;;;;;1.05;1.05;;;32.40;46.20;;;;;;5070931;28;20025;-76
2023/07/14 07:13:11;;;;;;;1.15;1.15;;;32.50;46.00;;;;;;5053729;28;20342;-76
2023/07/14 07:15:36;;;;;;;1.17;1.17;;;32.60;46.00;;;;;;5072722;28;20306;-75
2023/07/14 07:18:03;;;;;;;1.00;1.00;;;33.20;45.50;;;;;;5074529;28;20025;-76
2023/07/14 07:20:29;;;;;;;1.25;1.25;;;33.50;44.30;;;;;;5073935;28;20039;-75
2023/07/14 07:22:55;;;;;;;1.17;1.10;;;32.10;44.30;;;;;;5074370;28;20036;-76
2023/07/14 07:25:21;;;;;;;1.30;1.20;;;;;;;;;;5071786;28;20681;-75
2023/07/14 07:27:48;;;;;;;1.20;1.10;;;;;;;;;;5073958;28;20074;-75
2023/07/14 07:30:17;;;;;;;1.20;1.10;;;;;;;;;;5072529;28;20036;-76
2023/07/14 07:32:45;;;;;;;1.40;1.30;;;;;;;;;;5074643;28;20024;-76
2023/07/14 07:35:11;;;;;;;1.10;1.00;;;;;;;;;;5072616;28;20437;-76
2023/07/14 07:37:37;;;;;;;1.27;1.20;;;;;;;;;;5073488;28;20462;-75
2023/07/14 07:40:04;;;;;;;1.20;1.20;;;;;;;;;;5074412;28;20115;-76
2023/07/14 07:42:30;;;;;;;1.45;1.35;;;;;;;;;;5070674;28;20504;-75
2023/07/14 07:44:56;;;;;;;1.30;1.20;;;;;;;;;;5074375;28;20422;-75
2023/07/14 07:47:23;;;;;;;1.30;1.25;;;;;;;;;;5079692;28;20028;-75
2023/07/14 07:49:49;;;;;;;1.77;1.60;;;;;;;;;;5080813;28;20028;-75
2023/07/14 07:52:15;;;;;;;1.48;1.38;;;;;;;;;;5072283;28;20028;-75
2023/07/14 07:54:41;;;;;;;3.25;1.50;;;;;;;;;;5075434;28;20017;-76
2023/07/14 07:57:08;;;;;;;1.60;1.33;;;;;;;;;;5071909;28;20397;-76
2023/07/14 07:59:34;;;;;;;1.70;1.60;;;;;;;;;;5072956;28;20024;-77
2023/07/14 08:02:01;;;;;;;2.53;1.20;;;;;;;;;;5072135;28;20550;-76
2023/07/14 08:04:27;;;;;;;1.20;1.10;;;;;;;;;;5072698;28;20431;-76
2023/07/14 08:06:53;;;;;;;2.00;1.80;;;23.70;65.60;;;;;;5073129;28;20342;-76
2023/07/14 08:09:20;;;;;;;3.45;1.70;;;23.60;65.40;;;;;;5073357;28;20024;-76
2023/07/14 08:11:46;;;;;;;1.65;1.42;;;23.50;65.30;;;;;;5075155;28;20025;-76
2023/07/14 08:14:17;;;;;;;2.13;1.40;;;23.60;65.40;;;;;;5073847;28;20024;-77
2023/07/14 08:16:43;;;;;;;1.52;1.40;;;23.70;64.90;;;;;;5072250;28;20371;-76
2023/07/14 08:19:09;;;;;;;1.38;1.33;;;23.90;64.70;;;;;;5072724;28;20028;-76
2023/07/14 08:21:38;;;;;;;2.05;1.85;;;24.00;64.40;;;;;;5073449;28;20056;-76
2023/07/14 08:24:08;;;;;;;2.58;1.70;;;23.90;64.30;;;;;;5070936;28;20078;-76
2023/07/14 08:26:35;;;;;;;2.28;1.60;;;23.80;64.90;;;;;;5073450;28;20024;-76
2023/07/14 08:29:03;;;;;;;1.60;1.50;;;23.80;64.80;;;;;;5073871;28;20465;-76
2023/07/14 08:31:29;;;;;;;1.48;1.30;;;23.90;64.90;;;;;;5073289;28;20070;-76
2023/07/14 08:33:56;;;;;;;1.20;1.20;;;24.10;64.80;;;;;;5073471;28;20355;-75
2023/07/14 08:36:22;;;;;;;1.38;1.27;;;24.40;64.50;;;;;;5074207;28;20503;-76
2023/07/14 08:38:48;;;;;;;1.10;1.10;;;24.80;63.00;;;;;;5072704;28;20036;-76
2023/07/14 08:41:30;;;;;;;1.35;1.25;;;25.00;61.80;;;;;;5074746;28;20025;-76
2023/07/14 08:44:05;;;;;;;1.55;1.40;;;25.30;60.90;;;;;;5072438;28;20516;-75
2023/07/14 08:47:10;;;;;;;1.30;1.20;;;25.30;60.10;;;;;;5072462;28;20158;-75
2023/07/14 08:49:48;;;;;;;1.45;1.35;;;25.40;60.20;;;;;;5073172;28;20411;-75
2023/07/14 08:52:27;;;;;;;1.23;1.20;;;25.40;60.10;;;;;;5058651;28;20062;-75
2023/07/14 08:55:22;;;;;;;2.03;1.05;;;25.40;59.70;;;;;;5069708;28;20029;-75
2023/07/14 08:58:02;;;;;;;1.30;1.20;;;25.30;59.10;;;;;;5070684;28;20028;-76
2023/07/14 09:00:59;;;;;;;1.50;1.40;;;25.30;59.40;;;;;;5073746;28;20032;-75
2023/07/14 09:03:39;;;;;;;2.80;1.48;;;25.40;59.10;;;;;;5072979;28;20426;-76
2023/07/14 09:06:16;;;;;;;1.75;1.35;;;25.40;59.00;;;;;;5071749;28;20024;-76
2023/07/14 09:08:42;;;;;;;1.73;1.40;;;25.60;58.50;;;;;;5073609;28;20029;-76
2023/07/14 09:11:22;;;;;;;2.90;1.40;;;25.50;58.00;;;;;;5060886;28;20504;-76
2023/07/14 09:14:00;;;;;;;1.25;1.15;;;25.50;57.90;;;;;;5072620;28;20100;-76
2023/07/14 09:16:29;;;;;;;1.52;1.27;;;25.60;57.90;;;;;;5073127;28;20032;-76
2023/07/14 09:19:12;;;;;;;1.20;1.20;;;25.90;57.70;;;;;;5073476;28;20024;-77
2023/07/14 09:21:56;;;;;;;1.20;1.20;;;26.20;57.00;;;;;;5071981;28;20044;-77
2023/07/14 09:24:27;;;;;;;1.20;1.10;;;26.50;56.10;;;;;;5073510;28;20123;-76
2023/07/14 09:26:55;;;;;;;1.08;1.08;;;26.90;55.50;;;;;;5073525;28;20141;-76
2023/07/14 09:29:33;;;;;;;1.20;1.10;;;27.20;54.90;;;;;;5073942;28;20115;-76
2023/07/14 09:32:14;;;;;;;1.38;1.00;;;27.40;54.60;;;;;;5075019;28;20077;-74
2023/07/14 09:34:46;;;;;;;1.73;1.50;;;27.40;53.10;;;;;;5072913;28;20025;-76
2023/07/14 09:37:22;;;;;;;2.30;1.50;;;27.30;53.50;;;;;;5073153;28;20497;-75
2023/07/14 09:39:57;;;;;;;1.85;1.30;;;27.30;52.30;;;;;;5071738;28;20032;-76
2023/07/14 09:42:32;;;;;;;1.75;1.35;;;27.10;53.40;;;;;;5072239;28;20025;-76
2023/07/14 09:45:08;;;;;;;1.90;1.25;;;26.90;52.60;;;;;;5070937;28;20051;-75
2023/07/14 09:47:35;;;;;;;1.52;1.42;;;26.70;52.80;;;;;;5071647;28;20175;-75
2023/07/14 09:50:01;;;;;;;1.95;1.55;;;26.70;53.40;;;;;;5070316;28;20028;-75
2023/07/14 09:52:28;;;;;;;1.73;1.60;;;26.60;52.80;;;;;;5071861;28;20017;-75
2023/07/14 09:54:59;;;;;;;1.48;1.42;;;26.50;52.80;;;;;;5071978;28;20020;-76
2023/07/14 09:57:32;;;;;;;1.40;1.25;;;26.50;51.90;;;;;;5072756;28;20122;-76
2023/07/14 10:00:14;;;;;;;1.23;1.13;;;26.60;50.50;;;;;;5072299;28;20063;-76
2023/07/14 10:02:40;;;;;;;1.48;1.38;;;26.70;49.60;;;;;;5073387;28;20031;-76
2023/07/14 10:05:30;;;;;;;1.00;1.00;;;26.70;49.60;;;;;;5071514;28;20462;-76
2023/07/14 10:07:55;;;;;;;1.58;1.00;;;27.00;49.70;;;;;;5076289;28;20035;-76
2023/07/14 10:10:26;;;;;;;1.25;1.15;;;27.10;49.00;;;;;;5074945;28;20393;-76
2023/07/14 10:12:52;;;;;;;3.17;1.30;;;27.20;49.10;;;;;;5074094;28;20461;-76
2023/07/14 10:15:34;;;;;;;2.80;1.60;;;27.20;50.20;;;;;;5073040;28;20021;-76
2023/07/14 10:18:03;;;;;;;1.42;1.33;;;27.10;51.40;;;;;;5074959;28;20026;-75
2023/07/14 10:20:31;;;;;;;1.40;1.30;;;27.20;51.80;;;;;;5074034;28;20104;-75
2023/07/14 10:22:59;;;;;;;1.20;1.10;;;27.40;51.60;;;;;;5074888;28;20036;-74
2023/07/14 10:25:27;;;;;;;1.25;1.15;;;27.70;51.00;;;;;;5074743;28;20016;-75
2023/07/14 10:28:03;;;;;;;1.20;1.10;;;28.10;50.10;;;;;;5070593;28;20116;-76
2023/07/14 10:30:57;;;;;;;1.42;1.27;;;28.40;49.30;;;;;;5071011;28;20032;-75
2023/07/14 10:33:38;;;;;;;1.55;1.40;;;28.50;48.20;;;;;;5064827;28;20024;-76
2023/07/14 10:36:18;;;;;;;1.10;1.10;;;28.40;48.00;;;;;;5074460;28;20012;-77
2023/07/14 10:39:11;;;;;;;2.53;1.88;;;28.50;48.60;;;;;;5074886;28;20107;-75
2023/07/14 10:41:39;;;;;;;2.35;1.48;;;28.60;48.20;;;;;;5073142;28;20044;-76
2023/07/14 10:44:19;;;;;;;1.85;1.65;;;28.40;48.40;;;;;;5075198;28;20032;-75
2023/07/14 10:46:56;;;;;;;1.60;1.50;;;28.20;49.40;;;;;;5080070;28;20027;-76
2023/07/14 10:49:36;;;;;;;1.60;1.50;;;28.30;49.20;;;;;;5097224;28;20099;-74
2023/07/14 10:52:05;;;;;;;1.63;1.52;;;28.20;48.00;;;;;;5096814;28;20032;-76
2023/07/14 10:54:52;;;;;;;1.33;1.23;;;28.20;47.90;;;;;;5084401;28;20078;-76
2023/07/14 10:57:24;;;;;;;1.10;1.10;;;28.50;46.80;;;;;;5079417;28;20111;-76
2023/07/14 11:00:22;;;;;;;1.23;1.13;;;28.80;46.50;;;;;;5086786;28;20384;-76
2023/07/14 11:03:26;;;;;;;0.80;0.80;;;29.20;46.10;;;;;;5077657;28;20030;-75
2023/07/14 11:06:28;;;;;;;1.17;1.00;;;29.30;45.60;;;;;;5074856;28;20091;-76
2023/07/14 11:08:56;;;;;;;1.25;1.25;;;29.40;45.00;;;;;;5067913;28;20041;-76
2023/07/14 11:11:44;;;;;;;1.25;1.17;;;29.40;45.40;;;;;;5076937;28;20086;-76
2023/07/14 11:14:29;;;;;;;1.08;1.08;;;29.60;45.40;;;;;;5077138;28;20477;-76
2023/07/14 11:17:18;;;;;;;2.33;1.50;;;29.80;45.40;;;;;;5075103;28;20095;-76
2023/07/14 11:19:51;;;;;;;2.78;1.40;;;29.80;45.30;;;;;;5080123;28;20024;-76
2023/07/14 11:22:25;;;;;;;1.25;1.10;;;29.60;44.60;;;;;;5077108;28;20031;-76
2023/07/14 11:25:09;;;;;;;1.27;1.20;;;29.50;45.50;;;;;;5075386;28;20027;-76
2023/07/14 11:27:55;;;;;;;1.30;1.20;;;29.50;44.80;;;;;;5074776;28;20016;-77
2023/07/14 11:30:35;;;;;;;1.00;1.00;;;29.60;44.80;;;;;;5075310;28;20104;-75
2023/07/14 11:33:23;;;;;;;1.10;1.10;;;29.80;44.90;;;;;;5072829;28;20024;-74
2023/07/14 11:35:57;;;;;;;1.50;1.40;;;30.00;44.50;;;;;;5065896;28;20509;-76
2023/07/14 11:38:32;;;;;;;1.60;1.50;;;29.90;43.80;;;;;;5075426;28;20028;-75
2023/07/14 11:40:59;;;;;;;1.70;1.60;;;29.80;44.20;;;;;;5074570;28;20024;-75
2023/07/14 11:43:29;;;;;;;1.50;1.40;;;29.80;44.30;;;;;;5075209;28;20044;-75
2023/07/14 11:46:04;;;;;;;1.23;1.10;;;29.90;44.80;;;;;;5073941;28;20436;-75
2023/07/14 11:48:52;;;;;;;1.15;1.05;;;30.20;45.30;;;;;;5075185;28;20055;-75
2023/07/14 11:51:20;;;;;;;1.38;1.23;;;30.60;44.70;;;;;;5073731;28;20074;-76
2023/07/14 11:54:40;;;;;;;1.52;1.05;;;30.60;43.40;;;;;;5075420;28;20400;-76
2023/07/14 11:57:07;;;;;;;1.52;1.42;;;30.60;43.00;;;;;;5051856;28;20100;-76
2023/07/14 11:59:36;;;;;;;1.17;1.17;;;30.80;43.50;;;;;;5047065;28;20060;-76
2023/07/14 12:02:27;;;;;;;1.20;1.10;;;30.90;43.60;;;;;;5068246;28;20029;-78
2023/07/14 12:05:30;;;;;;;1.20;1.20;;;31.00;43.30;;;;;;5079122;28;20021;-77
2023/07/14 12:08:04;;;;;;;2.33;1.48;;;31.00;42.90;;;;;;5075405;28;20446;-76
2023/07/14 12:10:40;;;;;;;1.05;1.05;;;30.90;43.60;;;;;;5073543;28;20497;-75
2023/07/14 12:13:18;;;;;;;1.10;1.10;;;30.90;43.40;;;;;;5073782;28;20037;-76
2023/07/14 12:15:48;;;;;;;1.20;1.20;;;31.10;43.50;;;;;;5071808;28;20056;-76
2023/07/14 12:18:34;;;;;;;2.85;1.50;;;31.00;43.00;;;;;;5066234;28;20561;-75
2023/07/14 12:21:18;;;;;;;1.10;1.10;;;30.70;43.50;;;;;;5076878;28;20029;-77
2023/07/14 12:23:48;;;;;;;1.27;1.25;;;30.60;43.90;;;;;;5070282;28;20041;-75
2023/07/14 12:26:15;;;;;;;1.23;1.23;;;30.60;44.20;;;;;;5072525;28;20020;-75
2023/07/14 12:28:41;;;;;;;1.25;1.25;;;30.80;44.40;;;;;;5070820;28;20436;-75
2023/07/14 12:31:15;;;;;;;1.20;1.20;;;31.00;43.60;;;;;;5070975;28;20029;-75
2023/07/14 12:33:42;;;;;;;1.45;1.35;;;30.90;43.30;;;;;;5070665;28;20035;-76
2023/07/14 12:36:15;;;;;;;1.33;1.23;;;31.10;43.40;;;;;;5072157;28;20017;-76
2023/07/14 12:38:59;;;;;;;1.90;1.55;;;31.20;42.70;;;;;;5074020;28;20409;-75
2023/07/14 12:41:33;;;;;;;1.33;1.23;;;31.20;43.10;;;;;;5071902;28;20025;-75
2023/07/14 12:44:00;;;;;;;1.30;1.30;;;31.30;42.90;;;;;;5071528;28;20028;-74
2023/07/14 12:46:35;;;;;;;0.95;0.95;;;31.30;43.00;;;;;;5068699;28;20539;-76
2023/07/14 12:49:46;;;;;;;1.73;1.63;;;31.50;43.20;;;;;;5071179;28;20096;-76
2023/07/14 12:52:25;;;;;;;1.10;1.10;;;31.60;42.40;;;;;;5065026;28;20508;-75
2023/07/14 12:54:52;;;;;;;1.40;1.30;;;31.60;42.90;;;;;;5069349;28;20028;-76
2023/07/14 12:57:20;;;;;;;1.20;1.20;;;31.70;42.10;;;;;;5070166;28;20025;-76
2023/07/14 12:59:50;;;;;;;1.38;1.33;;;31.70;42.30;;;;;;5068935;28;20082;-76
2023/07/14 13:02:16;;;;;;;1.20;1.20;;;31.90;41.80;;;;;;5070028;28;20033;-76
2023/07/14 13:04:42;;;;;;;2.08;1.25;;;32.10;41.80;;;;;;5067524;28;20028;-75
2023/07/14 13:07:29;;;;;;;1.33;1.10;;;32.40;41.70;;;;;;5072269;28;20189;-75
2023/07/14 13:10:21;;;;;;;1.20;1.20;;;32.70;41.10;;;;;;5075025;28;20071;-75
2023/07/14 13:12:48;;;;;;;;;;;32.80;40.90;;;;;;5072414;28;20028;-76
2023/07/14 13:15:16;;;;;;;1.65;1.55;;;32.60;40.50;;;;;;5072757;28;20322;-76